Nevada City, CA

10:01 AM PDT on September 16, 2014 (GMT -0700)
Beale Air Force Base | Change Station
CLOSE
Current Station
Airport
Location: Beale AFB,
Elevation: 112 ft
Nearby Weather Stations

Elev 112 ft 39.14 °N, 121.44 °W | Updated 3 minutes ago

Clear
Clear
74 °F
Feels Like 74 °F
N
5
Wind Variable Wind from SSE

Today
High -- | Low -- °F
--% Chance of Precip.
Yesterday
High -- | Low -- °F
Precip. -- in
6:46 AM 7:10 PM
Last Quarter, 44% visible
Pressure 30.11 in
Visibility 10.0 miles
Clouds Clear
Dew Point 50 °F
Humidity 42%
Rainfall 0.00 in
Snow Depth 1 in , 1 in , 0 in
UV 4 out of 12
Pollen 6.40 out of 12
Ozone Good
Flu Activity Not available.
METAR KBAB 161658Z 15004KT 10SM CLR 23/10 A2989 RMK AO2A SLP196 T02340097 $

More Conditions Fewer Conditions

Pressure 30.11 in
Visibility 10.0 miles
Clouds Clear
Dew Point 50 °F
Humidity 42%
Rainfall 0.00 in
Snow Depth 1 in , 1 in , 0 in
UV 4 out of 12
Pollen 6.40 out of 12
Ozone Good
Flu Activity Not available.
METAR KBAB 161658Z 15004KT 10SM CLR 23/10 A2989 RMK AO2A SLP196 T02340097 $

More Conditions Fewer Conditions

10-Day Weather Forecast

Almanac

Astronomy

Sep. 16, 2014 Rise Set
Actual Time 6:46 AM PDT 7:10 PM PDT
Civil Twilight 6:19 AM PDT 7:37 PM PDT
Nautical Twilight 5:47 AM PDT 8:09 PM PDT
Astronomical Twilight 5:15 AM PDT 8:41 PM PDT
Moon 12:01 AM PDT 2:37 PM PDT
Length of Visible Light 13h 18m
Length of Day
12h 24m
Tomorrow will be 2m 31s shorter.
Last Quarter, 44% of the Moon is Illuminated
Today
Last Quarter
Sep 24
New
Oct 1
First Quarter
Oct 8
Full
Oct 15
Last Quarter

Today's Extremes

State Highs State Lows

Community

WunderPhotos

Upload Photos

1,753,832 photos uploaded!

Nearby

Air Quality

  Air Quality AQ Index Pollutant
Yesterday Good
OZONE
Current Good
OZONE

Snow Depth

Station Depth Elevation
Spratt Creek 1 in 6200 ft
CSS Lab 1 in 6900 ft
Tahoe City Cross 0 in 6750 ft
Sonora Pass 0 in 8800 ft
Monitor Pass 0 in 8350 ft

Earthquake Activity

City Distance Mag. Time & Date
Cobb, California 100 miles 2.7 11:07 AM PDT
2014-09-14
Minimum magnitude displayed is 2.5.

Coastal Water Temperatures

Place Temperature
No Stations Reporting

Nearby Weather Stations